Terminal Aerodrome Forecast
Issued by NWS Corpus Christi, TX

Home | Current Version | Previous Version | Text Only | Print | Product List | Glossary On
Versions: 1 2 3 4 5 6 7 8 9 10 11 12
247
FTUS44 KCRP 231123
TAFCRP
TAF
KCRP 231123Z 2312/2412 17005KT P6SM SCT025 BKN250 WS020/18035KT
     FM231400 18010G15KT P6SM SCT030 BKN250
      TEMPO 2314/2316 BKN030
     FM231900 13018G25KT P6SM SCT050 BKN250
     FM240400 15012KT P6SM SCT025 BKN250
     FM241000 17005KT P6SM SCT020 BKN250 WS020/18035KT=

USA.gov is the U.S. government's official web portal to all federal, state and local government web resources and services.